地図

経路データ

SID SEASON NUMBER BASIN SUBBASIN NAME ISO_TIME NATURE LAT LON WMO_WIND WMO_PRES WMO_AGENCY TRACK_TYPE DIST2LAND LANDFALL IFLAG USA_AGENCY USA_ATCF_ID USA_LAT USA_LON USA_RECORD USA_STATUS USA_WIND USA_PRES USA_SSHS USA_R34_NE USA_R34_SE USA_R34_SW USA_R34_NW USA_R50_NE USA_R50_SE USA_R50_SW USA_R50_NW USA_R64_NE USA_R64_SE USA_R64_SW USA_R64_NW USA_POCI USA_ROCI USA_RMW USA_EYE TOKYO_LAT TOKYO_LON TOKYO_GRADE TOKYO_WIND TOKYO_PRES TOKYO_R50_DIR TOKYO_R50_LONG TOKYO_R50_SHORT TOKYO_R30_DIR TOKYO_R30_LONG TOKYO_R30_SHORT TOKYO_LAND CMA_LAT CMA_LON CMA_CAT CMA_WIND CMA_PRES HKO_LAT HKO_LON HKO_CAT HKO_WIND HKO_PRES NEWDELHI_LAT NEWDELHI_LON NEWDELHI_GRADE NEWDELHI_WIND NEWDELHI_PRES NEWDELHI_CI NEWDELHI_DP NEWDELHI_POCI REUNION_LAT REUNION_LON REUNION_TYPE REUNION_WIND REUNION_PRES REUNION_TNUM REUNION_CI REUNION_RMW REUNION_R34_NE REUNION_R34_SE REUNION_R34_SW REUNION_R34_NW REUNION_R50_NE REUNION_R50_SE REUNION_R50_SW REUNION_R50_NW REUNION_R64_NE REUNION_R64_SE REUNION_R64_SW REUNION_R64_NW BOM_LAT BOM_LON BOM_TYPE BOM_WIND BOM_PRES BOM_TNUM BOM_CI BOM_RMW BOM_R34_NE BOM_R34_SE BOM_R34_SW BOM_R34_NW BOM_R50_NE BOM_R50_SE BOM_R50_SW BOM_R50_NW BOM_R64_NE BOM_R64_SE BOM_R64_SW BOM_R64_NW BOM_ROCI BOM_POCI BOM_EYE BOM_POS_METHOD BOM_PRES_METHOD NADI_LAT NADI_LON NADI_CAT NADI_WIND NADI_PRES WELLINGTON_LAT WELLINGTON_LON WELLINGTON_WIND WELLINGTON_PRES DS824_LAT DS824_LON DS824_STAGE DS824_WIND DS824_PRES TD9636_LAT TD9636_LON TD9636_STAGE TD9636_WIND TD9636_PRES TD9635_LAT TD9635_LON TD9635_WIND TD9635_PRES TD9635_ROCI NEUMANN_LAT NEUMANN_LON NEUMANN_CLASS NEUMANN_WIND NEUMANN_PRES MLC_LAT MLC_LON MLC_CLASS MLC_WIND MLC_PRES USA_GUST BOM_GUST BOM_GUST_PER REUNION_GUST REUNION_GUST_PER USA_SEAHGT USA_SEARAD_NE USA_SEARAD_SE USA_SEARAD_SW USA_SEARAD_NW STORM_SPEED STORM_DIR
1992335N03077 1992 127 NI AS NOT_NAMED 1992-11-29 12:00:00 NR 2.80000 76.5000 main 551 528 O_____________ jtwc_io IO111992 2.80000 76.5000 15 -1 6 82
1992335N03077 1992 127 NI AS NOT_NAMED 1992-11-29 15:00:00 NR 2.84002 76.8000 main 528 496 P_____________ IO111992 2.84002 76.8000 17 -1 6 81
1992335N03077 1992 127 NI AS NOT_NAMED 1992-11-29 18:00:00 NR 2.90000 77.1000 main 496 465 O_____________ jtwc_io IO111992 2.90000 77.1000 20 -1 6 76
1992335N03077 1992 127 NI AS NOT_NAMED 1992-11-29 21:00:00 NR 2.99249 77.4000 main 465 434 P_____________ IO111992 2.99249 77.4000 22 -1 6 72
1992335N03077 1992 127 NI AS NOT_NAMED 1992-11-30 00:00:00 NR 3.10000 77.7000 main 434 404 O_____________ jtwc_io IO111992 3.10000 77.7000 25 -1 6 72
1992335N03077 1992 127 NI BB NOT_NAMED 1992-11-30 03:00:00 NR 3.19250 78.0150 main 404 375 P_____________ IO111992 3.19250 78.0150 27 -1 6 72
1992335N03077 1992 127 NI BB NOT_NAMED 1992-11-30 06:00:00 NR 3.30000 78.3000 main 375 353 O_____________ jtwc_io IO111992 3.30000 78.3000 30 -1 6 65
1992335N03077 1992 127 NI BB NOT_NAMED 1992-11-30 09:00:00 NR 3.43499 78.5375 main 353 322 P_____________ IO111992 3.43499 78.5375 30 -1 5 53
1992335N03077 1992 127 NI BB NOT_NAMED 1992-11-30 12:00:00 NR 3.60000 78.7000 main 322 297 O_____________ jtwc_io IO111992 3.60000 78.7000 30 -1 4 36
1992335N03077 1992 127 NI BB NOT_NAMED 1992-11-30 15:00:00 NR 3.78499 78.7950 main 297 279 P_____________ IO111992 3.78499 78.7950 32 -1 4 13
1992335N03077 1992 127 NI BB NOT_NAMED 1992-11-30 18:00:00 NR 4.00000 78.8000 main 279 261 O_____________ jtwc_io IO111992 4.00000 78.8000 35 0 5 353
1992335N03077 1992 127 NI BB NOT_NAMED 1992-11-30 21:00:00 NR 4.24999 78.7450 main 268 252 P_____________ IO111992 4.24999 78.7450 35 0 5 338
1992335N03077 1992 127 NI BB NOT_NAMED 1992-12-01 00:00:00 NR 4.50000 78.6000 main 252 244 O_____________ jtwc_io IO111992 4.50000 78.6000 35 0 6 322
1992335N03077 1992 127 NI BB NOT_NAMED 1992-12-01 03:00:00 NR 4.72250 78.3800 main 252 252 P_____________ IO111992 4.72250 78.3800 37 0 6 309
1992335N03077 1992 127 NI BB NOT_NAMED 1992-12-01 06:00:00 NR 4.90000 78.1000 main 265 265 O_____________ jtwc_io IO111992 4.90000 78.1000 40 0 7 297
1992335N03077 1992 127 NI AS NOT_NAMED 1992-12-01 09:00:00 NR 5.02251 77.8000 main 288 288 P_____________ IO111992 5.02251 77.8000 40 0 6 288
1992335N03077 1992 127 NI AS NOT_NAMED 1992-12-01 12:00:00 NR 5.10000 77.5000 main 313 313 O_____________ jtwc_io IO111992 5.10000 77.5000 40 0 6 283
1992335N03077 1992 127 NI AS NOT_NAMED 1992-12-01 15:00:00 NR 5.15750 77.2200 main 325 325 P_____________ IO111992 5.15750 77.2200 42 0 5 281
1992335N03077 1992 127 NI AS NOT_NAMED 1992-12-01 18:00:00 NR 5.20000 77.0000 main 326 326 O_____________ jtwc_io IO111992 5.20000 77.0000 45 0 4 285
1992335N03077 1992 127 NI AS NOT_NAMED 1992-12-01 21:00:00 NR 5.24998 76.8775 main 327 316 P_____________ IO111992 5.24998 76.8775 47 0 2 297
1992335N03077 1992 127 NI AS NOT_NAMED 1992-12-02 00:00:00 NR 5.30000 76.8000 main 318 318 O_____________ jtwc_io IO111992 5.30000 76.8000 50 0 2 301
1992335N03077 1992 127 NI AS NOT_NAMED 1992-12-02 03:00:00 NR 5.34999 76.7075 main 320 309 P_____________ IO111992 5.34999 76.7075 47 0 2 297
1992335N03077 1992 127 NI AS NOT_NAMED 1992-12-02 06:00:00 NR 5.40000 76.6000 main 312 312 O_____________ jtwc_io IO111992 5.40000 76.6000 45 0 3 293
1992335N03077 1992 127 NI AS NOT_NAMED 1992-12-02 09:00:00 NR 5.45000 76.4650 main 304 304 P_____________ IO111992 5.45000 76.4650 45 0 3 289
1992335N03077 1992 127 NI AS NOT_NAMED 1992-12-02 12:00:00 NR 5.50000 76.3000 main 311 311 O_____________ jtwc_io IO111992 5.50000 76.3000 45 0 4 286
1992335N03077 1992 127 NI AS NOT_NAMED 1992-12-02 15:00:00 NR 5.55000 76.1075 main 309 309 P_____________ IO111992 5.55000 76.1075 42 0 4 284
1992335N03077 1992 127 NI AS NOT_NAMED 1992-12-02 18:00:00 NR 5.60000 75.9000 main 319 319 O_____________ jtwc_io IO111992 5.60000 75.9000 40 0 4 283
1992335N03077 1992 127 NI AS NOT_NAMED 1992-12-02 21:00:00 NR 5.64248 75.7075 main 331 321 P_____________ IO111992 5.64248 75.7075 37 0 4 284
1992335N03077 1992 127 NI AS NOT_NAMED 1992-12-03 00:00:00 NR 5.70000 75.5000 main 334 332 O_____________ jtwc_io IO111992 5.70000 75.5000 35 0 5 289
1992335N03077 1992 127 NI AS NOT_NAMED 1992-12-03 03:00:00 NR 5.79249 75.2650 main 339 339 P_____________ IO111992 5.79249 75.2650 32 -1 5 292
1992335N03077 1992 127 NI AS NOT_NAMED 1992-12-03 06:00:00 NR 5.90000 75.0000 main 353 353 O_____________ jtwc_io IO111992 5.90000 75.0000 30 -1 6 290
1992335N03077 1992 127 NI AS NOT_NAMED 1992-12-03 09:00:00 NR 5.99248 74.7150 main 369 369 P_____________ IO111992 5.99248 74.7150 30 -1 6 289
1992335N03077 1992 127 NI AS NOT_NAMED 1992-12-03 12:00:00 NR 6.10000 74.4000 main 385 385 O_____________ jtwc_io IO111992 6.10000 74.4000 30 -1 7 290
1992335N03077 1992 127 NI AS NOT_NAMED 1992-12-03 15:00:00 NR 6.23499 74.0575 main 400 400 P_____________ IO111992 6.23499 74.0575 27 -1 8 293
1992335N03077 1992 127 NI AS NOT_NAMED 1992-12-03 18:00:00 NR 6.40000 73.7000 main 416 416 O_____________ jtwc_io IO111992 6.40000 73.7000 25 -1 8 297
1992335N03077 1992 127 NI AS NOT_NAMED 1992-12-03 21:00:00 NR 6.59254 73.3476 main 436 436 P_____________ IO111992 6.59254 73.3476 22 -1 8 300
1992335N03077 1992 127 NI AS NOT_NAMED 1992-12-04 00:00:00 NR 6.80000 73.0000 main 451 O_____________ jtwc_io IO111992 6.80000 73.0000 20 -1 8 301

IBTrACS Databaseについて

本データベースは、米国NOAAが公開する1842年以降の世界の熱帯低気圧のベストトラックデータアーカイブInternational Best Track Archive for Climate Stewardship (IBTrACS)を、ウェブで閲覧しやすい形式に変換したものです。

最終更新日:2021-12-01